Huvudsida
METAR-TAF:

METAR-TAF

Flygplatser :

Antonio B. Won Pat International Airport

Hagåtña, Guam, USA

latitud: 13-29N, longitud: 144-48E, höjd: 91 m

Aktuellt väderrapport

Denna rapport gjordes för 30 minuter sedan, klockan 13:28 UTC
Vind 5 kt från sydost
Temperatur 27°C
Fuktighet 94%
Tryck 1012 hPa
Sikt: 16.1 km
Få moln på en höjd av 1500 ft
Spridda moln på en höjd av 2300 ft

METAR: PGUM 151328Z 13005KT 10SM FEW015 SCT023 27/26 A2988 RMK AO2 T02670261

Tid: 23:58 (13:58 UTC)

Väderprognos

Denna rapport gjordes för 2 timmar och 27 minuter sedan, klockan 11:31 UTC
Prognos gäller från 15 kl. 12 UTC till 16 kl. 18 UTC
Vind 8 kt från ost
Sikt: 10 km
Spridda moln på en höjd av 1800 ft
Spridda moln på en höjd av 4500 ft
skurar i närheten

TAF: PGUM 151131Z 1512/1618 09008KT P6SM VCSH SCT018 SCT045

Aktuella väderrapporter och prognoser från 4000 flygplatser (METAR- och TAF-rapporter).

De tillgängliga stationerna syns som gula och röda prickar på kartan.

För musen över prickarna för att se namnen på stationerna.

Klicka sedan för att få väderrapporter och prognoser.

För att ändra kartan: Klicka på de gröna knapparna med ett svart kors på för att zooma in; den gröna knappen med ett streck på för att zooma ut; eller på de gröna pilarna för angränsande kartor.


METAR-TAF: